Time,TemperatureF,DewpointF,PressureIn,WindDirection,WindDirectionDegrees,WindSpeedMPH,WindSpeedGustMPH,Humidity,HourlyPrecipIn,Conditions,Clouds,dailyrainin,SoftwareType,DateUTC
2013-01-21 00:00:00,6.9,-0.2,29.90,NNE,22,8.6,8.6,72,0.00,,CLR,-99.99,VWS V14.01,2013-01-21 05:00:00,
2013-01-21 00:03:00,6.9,-0.2,29.91,NNE,22,6.2,6.2,72,0.00,,CLR,-99.99,VWS V14.01,2013-01-21 05:03:00,
2013-01-21 00:04:00,6.8,-0.3,29.91,NNE,22,13.0,13.0,72,0.00,,CLR,-99.99,VWS V14.01,2013-01-21 05:04:00,
2013-01-21 00:07:00,6.6,-0.8,29.91,NNE,22,1.0,12.8,71,0.00,,CLR,-99.99,VWS V14.01,2013-01-21 05:07:00,
2013-01-21 00:12:00,6.6,-0.8,29.91,NE,45,1.0,13.9,71,0.00,,CLR,-99.99,VWS V14.01,2013-01-21 05:12:00,
2013-01-21 00:17:00,6.4,-1.0,29.91,North,0,1.0,10.7,71,0.00,,CLR,-99.99,VWS V14.01,2013-01-21 05:17:00,
2013-01-21 00:23:00,6.4,-1.0,29.91,NNE,22,9.2,9.2,71,0.00,,CLR,-99.99,VWS V14.01,2013-01-21 05:23:00,
2013-01-21 00:29:00,6.0,-1.4,29.91,NNE,22,11.4,13.1,71,0.00,,CLR,-99.99,VWS V14.01,2013-01-21 05:29:00,
2013-01-21 00:34:00,6.0,-1.4,29.91,North,0,12.7,12.7,71,0.00,,CLR,-99.99,VWS V14.01,2013-01-21 05:34:00,
2013-01-21 00:40:00,5.9,-1.2,29.91,North,0,10.0,16.0,72,0.00,,CLR,-99.99,VWS V14.01,2013-01-21 05:40:00,
2013-01-21 00:45:00,5.9,-1.2,29.91,North,0,9.7,10.2,72,0.00,,CLR,-99.99,VWS V14.01,2013-01-21 05:45:00,
2013-01-21 00:50:00,5.7,-1.4,29.91,NNE,22,10.3,11.4,72,0.00,,CLR,-99.99,VWS V14.01,2013-01-21 05:50:00,
2013-01-21 00:55:00,5.7,-1.4,29.91,NNW,338,17.3,17.4,72,0.00,,CLR,-99.99,VWS V14.01,2013-01-21 05:55:00,
2013-01-21 01:00:00,5.5,-1.5,29.91,NE,45,7.3,18.6,72,0.00,,CLR,-99.99,VWS V14.01,2013-01-21 06:00:00,
2013-01-21 01:06:00,5.5,-1.5,29.91,NNE,22,9.2,9.2,72,0.00,,CLR,-99.99,VWS V14.01,2013-01-21 06:06:00,
2013-01-21 01:12:00,5.5,-1.5,29.91,NE,45,1.0,6.7,72,0.00,,CLR,-99.99,VWS V14.01,2013-01-21 06:12:00,
2013-01-21 01:17:00,5.5,-1.5,29.92,NNE,22,1.0,0.0,72,0.00,,CLR,-99.99,VWS V14.01,2013-01-21 06:17:00,
2013-01-21 01:22:00,5.3,-1.8,29.91,NNE,22,8.6,8.6,72,0.00,,CLR,-99.99,VWS V14.01,2013-01-21 06:22:00,
2013-01-21 01:27:00,5.1,-1.9,29.92,NE,45,1.0,0.0,72,0.00,,CLR,-99.99,VWS V14.01,2013-01-21 06:27:00,
2013-01-21 01:32:00,4.8,-1.9,29.92,NNE,22,1.0,0.0,73,0.00,,CLR,-99.99,VWS V14.01,2013-01-21 06:32:00,
2013-01-21 01:38:00,4.8,-1.9,29.92,NE,45,1.0,13.1,73,0.00,,CLR,-99.99,VWS V14.01,2013-01-21 06:38:00,
2013-01-21 01:43:00,4.8,-1.9,29.92,NNE,22,1.0,0.0,73,0.00,,CLR,-99.99,VWS V14.01,2013-01-21 06:43:00,
2013-01-21 01:48:00,4.6,-2.1,29.92,NE,45,17.0,17.1,73,0.00,,CLR,-99.99,VWS V14.01,2013-01-21 06:48:00,
2013-01-21 01:54:00,4.6,-1.9,29.93,NE,45,1.0,8.8,74,0.00,,CLR,-99.99,VWS V14.01,2013-01-21 06:54:00,
2013-01-21 01:59:00,4.6,-1.9,29.93,NE,45,1.0,13.9,74,0.00,,CLR,-99.99,VWS V14.01,2013-01-21 06:59:00,
2013-01-21 02:04:00,4.4,-2.0,29.93,NE,45,1.0,20.3,74,0.00,,CLR,-99.99,VWS V14.01,2013-01-21 07:04:00,
2013-01-21 02:10:00,4.2,-2.2,29.94,ENE,68,1.0,8.5,74,0.00,,CLR,-99.99,VWS V14.01,2013-01-21 07:10:00,
2013-01-21 02:15:00,4.2,-2.2,29.94,NE,45,1.0,0.0,74,0.00,,CLR,-99.99,VWS V14.01,2013-01-21 07:15:00,
2013-01-21 02:20:00,4.1,-2.3,29.93,NNE,22,1.0,0.0,74,0.00,,CLR,-99.99,VWS V14.01,2013-01-21 07:20:00,
2013-01-21 02:25:00,3.9,-2.2,29.94,NE,45,9.0,9.0,75,0.00,,CLR,-99.99,VWS V14.01,2013-01-21 07:25:00,
2013-01-21 02:30:00,3.9,-2.2,29.93,NE,45,11.4,11.4,75,0.00,,CLR,-99.99,VWS V14.01,2013-01-21 07:30:00,
2013-01-21 02:35:00,3.7,-2.4,29.94,NE,45,1.0,11.0,75,0.00,,CLR,-99.99,VWS V14.01,2013-01-21 07:35:00,
2013-01-21 02:40:00,3.5,-2.6,29.94,NNE,22,1.0,0.0,75,0.00,,CLR,-99.99,VWS V14.01,2013-01-21 07:40:00,
2013-01-21 02:45:00,3.5,-2.6,29.94,NE,45,1.0,17.4,75,0.00,,CLR,-99.99,VWS V14.01,2013-01-21 07:45:00,
2013-01-21 02:50:00,3.3,-2.8,29.94,ENE,68,1.0,0.0,75,0.00,,CLR,-99.99,VWS V14.01,2013-01-21 07:50:00,
2013-01-21 02:55:00,3.3,-2.8,29.94,NE,45,1.0,0.0,75,0.00,,CLR,-99.99,VWS V14.01,2013-01-21 07:55:00,
2013-01-21 03:00:00,3.0,-3.1,29.94,NE,45,1.0,0.0,75,0.00,,CLR,-99.99,VWS V14.01,2013-01-21 08:00:00,
2013-01-21 03:05:00,3.0,-3.1,29.94,NE,45,1.0,0.0,75,0.00,,CLR,-99.99,VWS V14.01,2013-01-21 08:05:00,
2013-01-21 03:10:00,3.0,-3.1,29.94,NE,45,1.0,0.0,75,0.00,,CLR,-99.99,VWS V14.01,2013-01-21 08:10:00,
2013-01-21 03:16:00,2.8,-3.3,29.95,NE,45,1.0,0.0,75,0.00,,CLR,-99.99,VWS V14.01,2013-01-21 08:16:00,
2013-01-21 03:21:00,2.8,-3.3,29.95,NE,45,1.0,0.0,75,0.00,,CLR,-99.99,VWS V14.01,2013-01-21 08:21:00,
2013-01-21 03:27:00,3.0,-3.1,29.95,NE,45,1.0,0.0,75,0.00,,CLR,-99.99,VWS V14.01,2013-01-21 08:27:00,
2013-01-21 03:33:00,2.8,-3.3,29.96,NE,45,1.0,0.0,75,0.00,,CLR,-99.99,VWS V14.01,2013-01-21 08:33:00,
2013-01-21 03:38:00,2.8,-3.3,29.95,NE,45,1.0,0.0,75,0.00,,CLR,-99.99,VWS V14.01,2013-01-21 08:38:00,
2013-01-21 03:43:00,2.8,-3.3,29.95,NNE,22,8.6,8.6,75,0.00,,CLR,-99.99,VWS V14.01,2013-01-21 08:43:00,
2013-01-21 03:49:00,2.4,-3.7,29.94,North,0,1.0,0.0,75,0.00,,CLR,-99.99,VWS V14.01,2013-01-21 08:49:00,
2013-01-21 03:55:00,2.4,-3.7,29.94,North,0,1.0,0.0,75,0.00,,CLR,-99.99,VWS V14.01,2013-01-21 08:55:00,
2013-01-21 04:00:00,2.4,-4.0,29.94,NE,45,1.0,0.0,74,0.00,,CLR,-99.99,VWS V14.01,2013-01-21 09:00:00,
2013-01-21 04:05:00,2.4,-4.3,29.94,NNE,22,1.0,3.5,73,0.00,,CLR,-99.99,VWS V14.01,2013-01-21 09:05:00,
2013-01-21 04:10:00,2.4,-4.3,29.94,North,0,12.4,12.4,73,0.00,,CLR,-99.99,VWS V14.01,2013-01-21 09:10:00,
2013-01-21 04:15:00,2.4,-4.6,29.94,North,0,1.0,12.2,72,0.00,,CLR,-99.99,VWS V14.01,2013-01-21 09:15:00,
2013-01-21 04:20:00,2.3,-4.6,29.95,NNE,22,1.0,0.0,72,0.00,,CLR,-99.99,VWS V14.01,2013-01-21 09:20:00,
2013-01-21 04:25:00,2.3,-4.6,29.95,NE,45,1.0,1.0,72,0.00,,CLR,-99.99,VWS V14.01,2013-01-21 09:25:00,
2013-01-21 04:30:00,2.1,-4.8,29.95,WNW,292,1.0,0.0,72,0.00,,CLR,-99.99,VWS V14.01,2013-01-21 09:30:00,
2013-01-21 04:35:00,2.1,-4.6,29.95,NNE,22,1.0,0.0,73,0.00,,CLR,-99.99,VWS V14.01,2013-01-21 09:35:00,
2013-01-21 04:40:00,2.1,-4.6,29.96,WNW,292,1.0,0.0,73,0.00,,CLR,-99.99,VWS V14.01,2013-01-21 09:40:00,
2013-01-21 04:46:00,1.9,-4.7,29.96,North,0,1.0,0.0,73,0.00,,CLR,-99.99,VWS V14.01,2013-01-21 09:46:00,
2013-01-21 04:52:00,1.7,-4.9,29.96,West,270,1.0,0.0,73,0.00,,CLR,-99.99,VWS V14.01,2013-01-21 09:52:00,
2013-01-21 04:57:00,1.5,-5.1,29.96,NNE,22,1.0,0.0,73,0.00,,CLR,-99.99,VWS V14.01,2013-01-21 09:57:00,
2013-01-21 05:03:00,1.5,-5.1,29.96,NNE,22,1.0,0.0,73,0.00,,CLR,-99.99,VWS V14.01,2013-01-21 10:03:00,
2013-01-21 05:08:00,1.2,-5.4,29.96,NNE,22,1.0,0.0,73,0.00,,CLR,-99.99,VWS V14.01,2013-01-21 10:08:00,
2013-01-21 05:13:00,0.6,-6.0,29.95,NNE,22,1.0,0.0,73,0.00,,CLR,-99.99,VWS V14.01,2013-01-21 10:13:00,
2013-01-21 05:19:00,0.3,-6.0,29.96,NNE,22,1.0,0.0,74,0.00,,CLR,-99.99,VWS V14.01,2013-01-21 10:19:00,
2013-01-21 05:24:00,0.3,-6.0,29.95,NNE,22,1.0,0.0,74,0.00,,CLR,-99.99,VWS V14.01,2013-01-21 10:24:00,
2013-01-21 05:29:00,0.1,-6.2,29.95,NNE,22,1.0,0.0,74,0.00,,CLR,-99.99,VWS V14.01,2013-01-21 10:29:00,
2013-01-21 05:34:00,0.1,-6.2,29.96,NNE,22,1.0,0.0,74,0.00,,CLR,-99.99,VWS V14.01,2013-01-21 10:34:00,
2013-01-21 05:40:00,-0.2,-6.5,29.96,NNE,22,1.0,0.0,74,0.00,,CLR,-99.99,VWS V14.01,2013-01-21 10:40:00,
2013-01-21 05:45:00,-0.5,-6.8,29.96,NNE,22,1.0,0.0,74,0.00,,CLR,-99.99,VWS V14.01,2013-01-21 10:45:00,
2013-01-21 05:50:00,-0.7,-7.0,29.96,NNE,22,1.0,0.0,74,0.00,,CLR,-99.99,VWS V14.01,2013-01-21 10:50:00,
2013-01-21 05:55:00,-1.4,-7.7,29.96,NNE,22,1.0,0.0,74,0.00,,CLR,-99.99,VWS V14.01,2013-01-21 10:55:00,
2013-01-21 06:00:00,-1.4,-7.4,29.96,NNE,22,1.0,0.0,75,0.00,,CLR,-99.99,VWS V14.01,2013-01-21 11:00:00,
2013-01-21 06:06:00,-1.4,-7.1,29.96,NNE,22,1.0,0.0,76,0.00,,CLR,-99.99,VWS V14.01,2013-01-21 11:06:00,
2013-01-21 06:12:00,-1.6,-7.3,29.97,NNE,22,1.0,0.0,76,0.00,,CLR,-99.99,VWS V14.01,2013-01-21 11:12:00,
2013-01-21 06:17:00,-2.2,-7.9,29.97,NNE,22,1.0,0.0,76,0.00,,CLR,-99.99,VWS V14.01,2013-01-21 11:17:00,
2013-01-21 06:22:00,-2.9,-8.8,29.97,NNE,22,1.0,0.0,75,0.00,,CLR,-99.99,VWS V14.01,2013-01-21 11:22:00,
2013-01-21 06:27:00,-3.1,-9.0,29.97,NNE,22,1.0,0.0,75,0.00,,CLR,-99.99,VWS V14.01,2013-01-21 11:27:00,
2013-01-21 06:32:00,-3.2,-9.4,29.97,NNE,22,1.0,0.0,74,0.00,,CLR,-99.99,VWS V14.01,2013-01-21 11:32:00,
2013-01-21 06:37:00,-3.4,-9.6,29.97,NNE,22,1.0,0.0,74,0.00,,CLR,-99.99,VWS V14.01,2013-01-21 11:37:00,
2013-01-21 06:42:00,-3.8,-10.3,29.97,NNE,22,1.0,0.0,73,0.00,,CLR,-99.99,VWS V14.01,2013-01-21 11:42:00,
2013-01-21 06:48:00,-4.3,-10.7,29.97,NNE,22,1.0,0.0,73,0.00,,CLR,-99.99,VWS V14.01,2013-01-21 11:48:00,
2013-01-21 06:53:00,-4.3,-10.7,29.97,NNE,22,1.0,0.0,73,0.00,,CLR,-99.99,VWS V14.01,2013-01-21 11:53:00,
2013-01-21 06:58:00,-5.2,-11.6,29.97,NNE,22,1.0,0.0,73,0.00,,CLR,-99.99,VWS V14.01,2013-01-21 11:58:00,
2013-01-21 07:03:00,-5.4,-12.1,29.97,WNW,292,1.0,0.0,72,0.00,,CLR,-99.99,VWS V14.01,2013-01-21 12:03:00,
2013-01-21 07:09:00,-5.9,-12.6,29.98,NNW,338,1.0,0.0,72,0.00,,CLR,-99.99,VWS V14.01,2013-01-21 12:09:00,
2013-01-21 07:15:00,-5.9,-12.0,29.98,NW,315,1.0,0.0,74,0.00,,CLR,-99.99,VWS V14.01,2013-01-21 12:15:00,
2013-01-21 07:20:00,-5.6,-11.7,29.98,NW,315,1.0,0.0,74,0.00,,CLR,-99.99,VWS V14.01,2013-01-21 12:20:00,
2013-01-21 07:25:00,-5.8,-11.9,29.98,WNW,292,1.0,0.0,74,0.00,,CLR,-99.99,VWS V14.01,2013-01-21 12:25:00,
2013-01-21 07:30:00,-5.9,-12.3,29.98,WNW,292,1.0,0.0,73,0.00,,CLR,-99.99,VWS V14.01,2013-01-21 12:30:00,
2013-01-21 07:35:00,-6.7,-13.1,29.98,NW,315,1.0,0.0,73,0.00,,CLR,-99.99,VWS V14.01,2013-01-21 12:35:00,
2013-01-21 07:40:00,-6.8,-13.4,29.99,NW,315,1.0,0.0,72,0.00,,CLR,-99.99,VWS V14.01,2013-01-21 12:40:00,
2013-01-21 07:45:00,-7.0,-13.6,29.99,NW,315,1.0,0.0,72,0.00,,CLR,-99.99,VWS V14.01,2013-01-21 12:45:00,
2013-01-21 07:50:00,-7.2,-13.8,29.99,NW,315,1.0,0.0,72,0.00,,CLR,-99.99,VWS V14.01,2013-01-21 12:50:00,
2013-01-21 07:56:00,-7.2,-13.6,29.99,NW,315,1.0,0.0,73,0.00,,CLR,-99.99,VWS V14.01,2013-01-21 12:56:00,
2013-01-21 08:02:00,-6.7,-13.1,29.98,NW,315,1.0,0.0,73,0.00,,CLR,-99.99,VWS V14.01,2013-01-21 13:02:00,
2013-01-21 08:08:00,-6.3,-12.7,29.99,NW,315,1.0,0.0,73,0.00,,CLR,-99.99,VWS V14.01,2013-01-21 13:08:00,
2013-01-21 08:13:00,-5.9,-12.3,29.99,NW,315,1.0,0.0,73,0.00,,CLR,-99.99,VWS V14.01,2013-01-21 13:13:00,
2013-01-21 08:19:00,-5.4,-11.8,29.99,NW,315,1.0,0.0,73,0.00,,CLR,-99.99,VWS V14.01,2013-01-21 13:19:00,
2013-01-21 08:24:00,-5.4,-11.8,30.00,NW,315,1.0,0.0,73,0.00,,CLR,-99.99,VWS V14.01,2013-01-21 13:24:00,
2013-01-21 08:30:00,-5.2,-11.6,30.00,NW,315,1.0,0.0,73,0.00,,CLR,-99.99,VWS V14.01,2013-01-21 13:30:00,
2013-01-21 08:35:00,-4.3,-10.5,30.00,NW,315,1.0,0.0,74,0.00,,CLR,-99.99,VWS V14.01,2013-01-21 13:35:00,
2013-01-21 08:40:00,-4.1,-10.3,30.00,NW,315,1.0,0.0,74,0.00,,CLR,-99.99,VWS V14.01,2013-01-21 13:40:00,
2013-01-21 08:45:00,-3.8,-10.0,30.00,NW,315,1.0,0.0,74,0.00,,CLR,-99.99,VWS V14.01,2013-01-21 13:45:00,
2013-01-21 08:50:00,-3.1,-9.3,30.00,NW,315,1.0,0.0,74,0.00,,CLR,-99.99,VWS V14.01,2013-01-21 13:50:00,
2013-01-21 08:55:00,-2.3,-8.3,29.99,West,270,1.0,0.0,75,0.00,,CLR,-99.99,VWS V14.01,2013-01-21 13:55:00,
2013-01-21 09:00:00,-1.1,-7.1,29.99,West,270,1.0,0.0,75,0.00,,CLR,-99.99,VWS V14.01,2013-01-21 14:00:00,
2013-01-21 09:06:00,-0.5,-6.2,30.00,West,270,1.0,0.0,76,0.00,,CLR,-99.99,VWS V14.01,2013-01-21 14:06:00,
2013-01-21 09:12:00,1.0,-5.1,29.99,WNW,292,1.0,0.0,75,0.00,,CLR,-99.99,VWS V14.01,2013-01-21 14:12:00,
2013-01-21 09:17:00,1.9,-4.2,30.00,NW,315,1.0,0.0,75,0.00,,CLR,-99.99,VWS V14.01,2013-01-21 14:17:00,
2013-01-21 09:23:00,2.4,-4.0,30.00,West,270,1.0,0.0,74,0.00,,CLR,-99.99,VWS V14.01,2013-01-21 14:23:00,
2013-01-21 09:28:00,3.0,-3.4,29.99,NNW,338,1.0,0.0,74,0.00,,CLR,-99.99,VWS V14.01,2013-01-21 14:28:00,
2013-01-21 09:33:00,4.2,-2.5,29.99,West,270,1.0,0.0,73,0.00,,CLR,-99.99,VWS V14.01,2013-01-21 14:33:00,
2013-01-21 09:38:00,5.0,-1.8,30.00,WNW,292,1.0,0.0,73,0.00,,CLR,-99.99,VWS V14.01,2013-01-21 14:38:00,
2013-01-21 09:44:00,5.5,-1.5,30.00,North,0,1.0,12.2,72,0.00,,CLR,-99.99,VWS V14.01,2013-01-21 14:44:00,
2013-01-21 09:50:00,6.6,-0.8,30.00,WNW,292,1.0,0.0,71,0.00,,CLR,-99.99,VWS V14.01,2013-01-21 14:50:00,
2013-01-21 09:55:00,6.9,-0.8,29.99,WNW,292,1.0,0.0,70,0.00,,CLR,-99.99,VWS V14.01,2013-01-21 14:55:00,
2013-01-21 10:00:00,7.3,-0.4,30.00,WNW,292,1.0,10.2,70,0.00,,CLR,-99.99,VWS V14.01,2013-01-21 15:00:00,
2013-01-21 10:06:00,7.7,-0.3,30.00,WNW,292,1.0,0.0,69,0.00,,CLR,-99.99,VWS V14.01,2013-01-21 15:06:00,
2013-01-21 10:12:00,8.4,0.0,29.99,WNW,292,1.0,0.0,68,0.00,,CLR,-99.99,VWS V14.01,2013-01-21 15:12:00,
2013-01-21 10:17:00,9.1,0.4,30.00,West,270,1.0,0.0,67,0.00,,CLR,-99.99,VWS V14.01,2013-01-21 15:17:00,
2013-01-21 10:23:00,9.6,0.5,30.00,West,270,1.0,0.0,66,0.00,,CLR,-99.99,VWS V14.01,2013-01-21 15:23:00,
2013-01-21 10:29:00,10.5,1.4,30.00,West,270,1.0,0.0,66,0.00,,CLR,-99.99,VWS V14.01,2013-01-21 15:29:00,
2013-01-21 10:34:00,10.5,1.1,30.00,West,270,1.0,0.0,65,0.00,,CLR,-99.99,VWS V14.01,2013-01-21 15:34:00,
2013-01-21 10:39:00,10.9,1.1,30.00,WNW,292,1.0,0.0,64,0.00,,CLR,-99.99,VWS V14.01,2013-01-21 15:39:00,
2013-01-21 10:44:00,11.4,1.6,29.99,WNW,292,1.0,0.0,64,0.00,,CLR,-99.99,VWS V14.01,2013-01-21 15:44:00,
2013-01-21 10:50:00,11.4,1.6,29.99,WNW,292,1.0,0.0,64,0.00,,CLR,-99.99,VWS V14.01,2013-01-21 15:50:00,
2013-01-21 10:55:00,12.0,1.8,29.98,WNW,292,1.0,0.0,63,0.00,,CLR,-99.99,VWS V14.01,2013-01-21 15:55:00,
2013-01-21 11:00:00,12.7,2.2,29.98,NW,315,1.0,0.0,62,0.00,,CLR,-99.99,VWS V14.01,2013-01-21 16:00:00,
2013-01-21 11:06:00,12.7,1.8,29.98,WNW,292,1.0,0.0,61,0.00,,CLR,-99.99,VWS V14.01,2013-01-21 16:06:00,
2013-01-21 11:12:00,13.1,2.2,29.98,WNW,292,1.0,0.0,61,0.00,,CLR,-99.99,VWS V14.01,2013-01-21 16:12:00,
2013-01-21 11:17:00,13.6,2.7,29.97,West,270,1.0,0.0,61,0.00,,CLR,-99.99,VWS V14.01,2013-01-21 16:17:00,
2013-01-21 11:23:00,13.6,2.7,29.97,WNW,292,1.0,8.5,61,0.00,,CLR,-99.99,VWS V14.01,2013-01-21 16:23:00,
2013-01-21 11:28:00,13.8,2.8,29.97,West,270,1.0,0.0,61,0.00,,CLR,-99.99,VWS V14.01,2013-01-21 16:28:00,
2013-01-21 11:33:00,13.8,2.5,29.96,West,270,1.0,0.0,60,0.00,,CLR,-99.99,VWS V14.01,2013-01-21 16:33:00,
2013-01-21 11:39:00,13.8,2.5,29.97,West,270,1.0,0.0,60,0.00,,CLR,-99.99,VWS V14.01,2013-01-21 16:39:00,
2013-01-21 11:45:00,13.6,2.3,29.97,West,270,1.0,0.0,60,0.00,,CLR,-99.99,VWS V14.01,2013-01-21 16:45:00,
2013-01-21 11:50:00,13.8,2.5,29.96,NW,315,1.0,2.7,60,0.00,,CLR,-99.99,VWS V14.01,2013-01-21 16:50:00,
2013-01-21 11:55:00,14.5,2.8,29.96,West,270,1.0,0.0,59,0.00,,CLR,-99.99,VWS V14.01,2013-01-21 16:55:00,
2013-01-21 12:00:00,15.2,3.5,29.96,WNW,292,1.0,0.0,59,0.00,,CLR,-99.99,VWS V14.01,2013-01-21 17:00:00,
2013-01-21 12:06:00,15.6,3.5,29.96,NW,315,1.0,0.0,58,0.00,,CLR,-99.99,VWS V14.01,2013-01-21 17:06:00,
2013-01-21 12:11:00,15.6,3.5,29.95,WNW,292,1.0,0.0,58,0.00,,CLR,-99.99,VWS V14.01,2013-01-21 17:11:00,
2013-01-21 12:16:00,15.6,3.5,29.95,West,270,1.0,0.0,58,0.00,,CLR,-99.99,VWS V14.01,2013-01-21 17:16:00,
2013-01-21 12:22:00,15.6,3.1,29.95,NW,315,1.0,0.0,57,0.00,,CLR,-99.99,VWS V14.01,2013-01-21 17:22:00,
2013-01-21 12:28:00,15.6,3.5,29.94,WNW,292,1.0,0.0,58,0.00,,CLR,-99.99,VWS V14.01,2013-01-21 17:28:00,
2013-01-21 12:34:00,15.4,2.9,29.94,WNW,292,1.0,0.0,57,0.00,,CLR,-99.99,VWS V14.01,2013-01-21 17:34:00,
2013-01-21 12:40:00,16.1,3.9,29.93,NW,315,1.0,0.0,58,0.00,,CLR,-99.99,VWS V14.01,2013-01-21 17:40:00,
2013-01-21 12:45:00,16.3,3.8,29.93,NW,315,3.6,3.6,57,0.00,,CLR,-99.99,VWS V14.01,2013-01-21 17:45:00,
2013-01-21 12:50:00,15.9,3.4,29.92,WNW,292,1.0,2.7,57,0.00,,CLR,-99.99,VWS V14.01,2013-01-21 17:50:00,
2013-01-21 12:55:00,16.1,3.6,29.92,West,270,1.0,0.0,57,0.00,,CLR,-99.99,VWS V14.01,2013-01-21 17:55:00,
2013-01-21 13:00:00,16.5,3.2,29.92,West,270,1.0,0.0,55,0.00,,CLR,-99.99,VWS V14.01,2013-01-21 18:00:00,
2013-01-21 13:05:00,16.3,3.0,29.92,NW,315,7.9,7.9,55,0.00,,CLR,-99.99,VWS V14.01,2013-01-21 18:05:00,
2013-01-21 13:10:00,16.5,3.5,29.92,WNW,292,1.0,7.4,56,0.00,,CLR,-99.99,VWS V14.01,2013-01-21 18:10:00,
2013-01-21 13:15:00,17.0,3.6,29.91,WNW,292,1.0,0.0,55,0.00,,CLR,-99.99,VWS V14.01,2013-01-21 18:15:00,
2013-01-21 13:20:00,16.8,3.0,29.91,NNW,338,1.0,0.0,54,0.00,,CLR,-99.99,VWS V14.01,2013-01-21 18:20:00,
2013-01-21 13:25:00,17.2,3.4,29.91,NW,315,1.0,0.0,54,0.00,,CLR,-99.99,VWS V14.01,2013-01-21 18:25:00,
2013-01-21 13:30:00,17.0,3.2,29.91,WNW,292,1.0,0.0,54,0.00,,CLR,-99.99,VWS V14.01,2013-01-21 18:30:00,
2013-01-21 13:35:00,16.8,3.0,29.91,WNW,292,4.3,4.3,54,0.00,,CLR,-99.99,VWS V14.01,2013-01-21 18:35:00,
2013-01-21 13:40:00,16.5,2.8,29.90,WNW,292,1.0,3.5,54,0.00,,CLR,-99.99,VWS V14.01,2013-01-21 18:40:00,
2013-01-21 13:45:00,16.5,2.8,29.90,WNW,292,1.0,0.0,54,0.00,,CLR,-99.99,VWS V14.01,2013-01-21 18:45:00,
2013-01-21 13:50:00,16.5,2.8,29.90,West,270,1.0,0.0,54,0.00,,CLR,-99.99,VWS V14.01,2013-01-21 18:50:00,
2013-01-21 13:55:00,16.5,2.4,29.91,West,270,1.0,0.0,53,0.00,,CLR,-99.99,VWS V14.01,2013-01-21 18:55:00,
2013-01-21 14:00:00,16.5,2.8,29.91,WNW,292,1.0,0.0,54,0.00,,CLR,-99.99,VWS V14.01,2013-01-21 19:00:00,
2013-01-21 14:05:00,16.7,3.0,29.91,West,270,1.0,0.0,54,0.00,,CLR,-99.99,VWS V14.01,2013-01-21 19:05:00,
2013-01-21 14:10:00,16.5,2.0,29.90,West,270,5.6,5.6,52,0.00,,CLR,-99.99,VWS V14.01,2013-01-21 19:10:00,
2013-01-21 14:16:00,15.9,1.4,29.91,NW,315,1.0,0.0,52,0.00,,CLR,-99.99,VWS V14.01,2013-01-21 19:16:00,
2013-01-21 14:21:00,15.9,1.0,29.91,WNW,292,1.0,0.0,51,0.00,,CLR,-99.99,VWS V14.01,2013-01-21 19:21:00,
2013-01-21 14:27:00,15.9,1.4,29.91,WNW,292,1.0,0.0,52,0.00,,CLR,-99.99,VWS V14.01,2013-01-21 19:27:00,
2013-01-21 14:33:00,15.8,0.5,29.91,NE,45,1.0,0.0,50,0.00,,CLR,-99.99,VWS V14.01,2013-01-21 19:33:00,
2013-01-21 14:39:00,15.6,-0.2,29.90,North,0,1.0,0.0,49,0.00,,CLR,-99.99,VWS V14.01,2013-01-21 19:39:00,
2013-01-21 14:45:00,16.1,1.6,29.90,NNW,338,1.0,0.0,52,0.00,,CLR,-99.99,VWS V14.01,2013-01-21 19:45:00,
2013-01-21 14:50:00,15.9,1.0,29.91,NW,315,1.0,0.0,51,0.00,,CLR,-99.99,VWS V14.01,2013-01-21 19:50:00,
2013-01-21 14:55:00,15.6,1.1,29.91,NW,315,1.0,0.0,52,0.00,,CLR,-99.99,VWS V14.01,2013-01-21 19:55:00,
2013-01-21 15:00:00,15.2,0.8,29.91,NW,315,4.0,4.0,52,0.00,,CLR,-99.99,VWS V14.01,2013-01-21 20:00:00,
2013-01-21 15:06:00,15.2,0.8,29.91,North,0,1.0,0.0,52,0.00,,CLR,-99.99,VWS V14.01,2013-01-21 20:06:00,
2013-01-21 15:12:00,15.2,0.8,29.91,WNW,292,1.0,0.0,52,0.00,,CLR,-99.99,VWS V14.01,2013-01-21 20:12:00,
2013-01-21 15:17:00,15.4,1.3,29.91,WNW,292,1.0,0.0,53,0.00,,CLR,-99.99,VWS V14.01,2013-01-21 20:17:00,
2013-01-21 15:23:00,15.4,1.3,29.91,WNW,292,1.0,0.0,53,0.00,,CLR,-99.99,VWS V14.01,2013-01-21 20:23:00,
2013-01-21 15:29:00,15.0,0.6,29.90,NNW,338,1.0,0.0,52,0.00,,CLR,-99.99,VWS V14.01,2013-01-21 20:29:00,
2013-01-21 15:34:00,14.7,0.7,29.90,WSW,248,1.0,0.0,53,0.00,,CLR,-99.99,VWS V14.01,2013-01-21 20:34:00,
2013-01-21 15:40:00,14.7,0.7,29.90,West,270,1.0,0.0,53,0.00,,CLR,-99.99,VWS V14.01,2013-01-21 20:40:00,
2013-01-21 15:45:00,14.5,0.9,29.89,West,270,1.0,0.0,54,0.00,,CLR,-99.99,VWS V14.01,2013-01-21 20:45:00,
2013-01-21 15:50:00,14.5,2.0,29.90,West,270,1.0,0.0,57,0.00,,CLR,-99.99,VWS V14.01,2013-01-21 20:50:00,
2013-01-21 15:55:00,14.7,3.7,29.90,West,270,1.0,0.0,61,0.00,,CLR,-99.99,VWS V14.01,2013-01-21 20:55:00,
2013-01-21 16:00:00,14.9,4.2,29.90,West,270,1.0,0.0,62,0.00,,CLR,-99.99,VWS V14.01,2013-01-21 21:00:00,
2013-01-21 16:05:00,14.7,3.7,29.90,WNW,292,1.0,0.0,61,0.00,,CLR,-99.99,VWS V14.01,2013-01-21 21:05:00,
2013-01-21 16:10:00,14.9,3.5,29.90,WNW,292,1.0,0.0,60,0.00,,CLR,-99.99,VWS V14.01,2013-01-21 21:10:00,
2013-01-21 16:15:00,13.8,1.0,29.90,WNW,292,1.0,0.0,56,0.00,,CLR,-99.99,VWS V14.01,2013-01-21 21:15:00,
2013-01-21 16:21:00,12.5,0.2,29.90,WNW,292,1.0,0.0,57,0.00,,CLR,-99.99,VWS V14.01,2013-01-21 21:21:00,
2013-01-21 16:26:00,12.0,0.1,29.90,WNW,292,1.0,0.0,58,0.00,,CLR,-99.99,VWS V14.01,2013-01-21 21:26:00,
2013-01-21 16:31:00,11.8,-0.1,29.90,NW,315,1.0,0.0,58,0.00,,CLR,-99.99,VWS V14.01,2013-01-21 21:31:00,
2013-01-21 16:37:00,11.6,-0.3,29.89,NE,45,1.0,0.0,58,0.00,,CLR,-99.99,VWS V14.01,2013-01-21 21:37:00,
2013-01-21 16:43:00,11.1,-0.4,29.90,NE,45,1.0,0.0,59,0.00,,CLR,-99.99,VWS V14.01,2013-01-21 21:43:00,
2013-01-21 16:49:00,11.1,-0.1,29.90,NE,45,1.0,0.0,60,0.00,,CLR,-99.99,VWS V14.01,2013-01-21 21:49:00,
2013-01-21 16:54:00,10.9,-0.2,29.89,NE,45,1.0,0.0,60,0.00,,CLR,-99.99,VWS V14.01,2013-01-21 21:54:00,
2013-01-21 16:59:00,10.9,-0.2,29.90,NE,45,1.0,0.0,60,0.00,,CLR,-99.99,VWS V14.01,2013-01-21 21:59:00,
2013-01-21 17:05:00,11.1,0.3,29.90,NE,45,1.0,0.0,61,0.00,,CLR,-99.99,VWS V14.01,2013-01-21 22:05:00,
2013-01-21 17:10:00,11.1,0.3,29.90,NE,45,1.0,0.0,61,0.00,,CLR,-99.99,VWS V14.01,2013-01-21 22:10:00,
2013-01-21 17:15:00,11.1,0.3,29.89,NE,45,1.0,0.0,61,0.00,,CLR,-99.99,VWS V14.01,2013-01-21 22:15:00,
2013-01-21 17:20:00,11.3,0.8,29.90,NE,45,1.0,0.0,62,0.00,,CLR,-99.99,VWS V14.01,2013-01-21 22:20:00,
2013-01-21 17:25:00,11.4,0.9,29.90,NE,45,1.0,0.0,62,0.00,,CLR,-99.99,VWS V14.01,2013-01-21 22:25:00,
2013-01-21 17:30:00,11.4,0.9,29.90,NE,45,1.0,0.0,62,0.00,,CLR,-99.99,VWS V14.01,2013-01-21 22:30:00,
2013-01-21 17:35:00,11.4,0.9,29.90,NE,45,1.0,0.0,62,0.00,,CLR,-99.99,VWS V14.01,2013-01-21 22:35:00,
2013-01-21 17:41:00,10.9,0.1,29.89,NE,45,1.0,0.0,61,0.00,,CLR,-99.99,VWS V14.01,2013-01-21 22:41:00,
2013-01-21 17:47:00,10.9,0.4,29.90,NE,45,1.0,0.0,62,0.00,,CLR,-99.99,VWS V14.01,2013-01-21 22:47:00,
2013-01-21 17:52:00,11.1,0.6,29.89,NE,45,1.0,0.0,62,0.00,,CLR,-99.99,VWS V14.01,2013-01-21 22:52:00,
2013-01-21 17:58:00,11.1,1.0,29.90,NE,45,1.0,0.0,63,0.00,,CLR,-99.99,VWS V14.01,2013-01-21 22:58:00,
2013-01-21 18:03:00,11.3,1.2,29.91,NE,45,1.0,0.0,63,0.00,,CLR,-99.99,VWS V14.01,2013-01-21 23:03:00,
2013-01-21 18:09:00,11.3,1.5,29.90,NE,45,1.0,0.0,64,0.00,,CLR,-99.99,VWS V14.01,2013-01-21 23:09:00,
2013-01-21 18:14:00,11.3,1.5,29.91,NE,45,1.0,0.0,64,0.00,,CLR,-99.99,VWS V14.01,2013-01-21 23:14:00,
2013-01-21 18:19:00,11.1,1.3,29.90,NE,45,1.0,0.0,64,0.00,,CLR,-99.99,VWS V14.01,2013-01-21 23:19:00,
2013-01-21 18:25:00,10.9,1.1,29.90,NE,45,1.0,0.0,64,0.00,,CLR,-99.99,VWS V14.01,2013-01-21 23:25:00,
2013-01-21 18:30:00,10.5,1.1,29.91,NE,45,1.0,0.0,65,0.00,,CLR,-99.99,VWS V14.01,2013-01-21 23:30:00,
2013-01-21 18:35:00,10.2,0.8,29.91,NE,45,1.0,0.0,65,0.00,,CLR,-99.99,VWS V14.01,2013-01-21 23:35:00,
2013-01-21 18:40:00,9.8,0.4,29.91,NE,45,1.0,0.0,65,0.00,,CLR,-99.99,VWS V14.01,2013-01-21 23:40:00,
2013-01-21 18:45:00,9.6,0.5,29.91,NE,45,1.0,0.0,66,0.00,,CLR,-99.99,VWS V14.01,2013-01-21 23:45:00,
2013-01-21 18:50:00,9.6,0.9,29.91,NE,45,1.0,0.0,67,0.00,,CLR,-99.99,VWS V14.01,2013-01-21 23:50:00,
2013-01-21 18:55:00,9.6,0.9,29.91,NE,45,1.0,0.0,67,0.00,,CLR,-99.99,VWS V14.01,2013-01-21 23:55:00,
2013-01-21 19:00:00,9.5,0.8,29.91,NE,45,1.0,0.0,67,0.00,,CLR,-99.99,VWS V14.01,2013-01-22 00:00:00,
2013-01-21 19:06:00,9.3,1.2,29.91,NE,45,1.0,0.0,69,0.00,,CLR,-99.99,VWS V14.01,2013-01-22 00:06:00,
2013-01-21 19:12:00,9.5,1.4,29.91,NE,45,1.0,0.0,69,0.00,,CLR,-99.99,VWS V14.01,2013-01-22 00:12:00,
2013-01-21 19:18:00,9.3,1.2,29.91,NE,45,1.0,0.0,69,0.00,,CLR,-99.99,VWS V14.01,2013-01-22 00:18:00,
2013-01-21 19:24:00,9.1,1.6,29.91,NE,45,1.0,0.0,71,0.00,,CLR,-99.99,VWS V14.01,2013-01-22 00:24:00,
2013-01-21 19:30:00,8.9,1.4,29.91,NE,45,1.0,0.0,71,0.00,,CLR,-99.99,VWS V14.01,2013-01-22 00:30:00,
2013-01-21 19:35:00,8.9,1.7,29.91,NE,45,1.0,0.0,72,0.00,,CLR,-99.99,VWS V14.01,2013-01-22 00:35:00,
2013-01-21 19:41:00,9.1,1.9,29.91,NE,45,1.0,0.0,72,0.00,,CLR,-99.99,VWS V14.01,2013-01-22 00:41:00,
2013-01-21 19:47:00,9.1,1.9,29.91,NE,45,1.0,0.0,72,0.00,,CLR,-99.99,VWS V14.01,2013-01-22 00:47:00,
2013-01-21 19:52:00,9.1,1.9,29.91,NE,45,1.0,0.0,72,0.00,,CLR,-99.99,VWS V14.01,2013-01-22 00:52:00,
2013-01-21 19:58:00,9.3,2.1,29.91,NE,45,1.0,0.0,72,0.00,,CLR,-99.99,VWS V14.01,2013-01-22 00:58:00,
2013-01-21 20:04:00,9.5,2.6,29.91,NE,45,1.0,0.0,73,0.00,,CLR,-99.99,VWS V14.01,2013-01-22 01:04:00,
2013-01-21 20:10:00,9.1,1.9,29.90,NE,45,1.0,0.0,72,0.00,,CLR,-99.99,VWS V14.01,2013-01-22 01:10:00,
2013-01-21 20:15:00,8.7,1.8,29.90,NE,45,1.0,0.0,73,0.00,,CLR,-99.99,VWS V14.01,2013-01-22 01:15:00,
2013-01-21 20:20:00,8.6,2.3,29.90,NE,45,1.0,0.0,75,0.00,,CLR,-99.99,VWS V14.01,2013-01-22 01:20:00,
2013-01-21 20:25:00,8.6,2.3,29.90,NE,45,1.0,0.0,75,0.00,,CLR,-99.99,VWS V14.01,2013-01-22 01:25:00,
2013-01-21 20:31:00,9.1,3.1,29.89,NE,45,1.0,0.0,76,0.00,,CLR,-99.99,VWS V14.01,2013-01-22 01:31:00,
2013-01-21 20:37:00,9.6,3.8,29.89,NE,45,1.0,0.0,77,0.00,,CLR,-99.99,VWS V14.01,2013-01-22 01:37:00,
2013-01-21 20:43:00,10.2,4.7,29.89,NE,45,1.0,0.0,78,0.00,,CLR,-99.99,VWS V14.01,2013-01-22 01:43:00,
2013-01-21 20:48:00,10.2,4.7,29.89,NE,45,1.0,0.0,78,0.00,,CLR,-99.99,VWS V14.01,2013-01-22 01:48:00,
2013-01-21 20:54:00,10.4,5.2,29.89,NE,45,1.0,0.0,79,0.00,,CLR,-99.99,VWS V14.01,2013-01-22 01:54:00,
2013-01-21 20:59:00,10.2,4.7,29.89,NE,45,1.0,0.0,78,0.00,,CLR,-99.99,VWS V14.01,2013-01-22 01:59:00,
2013-01-21 21:04:00,9.3,3.3,29.89,NE,45,1.0,0.0,76,0.00,,CLR,-99.99,VWS V14.01,2013-01-22 02:04:00,
2013-01-21 21:09:00,8.7,2.7,29.88,NE,45,1.0,0.0,76,0.00,,CLR,-99.99,VWS V14.01,2013-01-22 02:09:00,
2013-01-21 21:15:00,9.6,4.4,29.88,NE,45,1.0,0.0,79,0.00,,CLR,-99.99,VWS V14.01,2013-01-22 02:15:00,
2013-01-21 21:20:00,10.2,5.5,29.88,NE,45,1.0,0.0,81,0.00,,CLR,-99.99,VWS V14.01,2013-01-22 02:20:00,
2013-01-21 21:25:00,10.2,5.5,29.88,NE,45,1.0,0.0,81,0.00,,CLR,-99.99,VWS V14.01,2013-01-22 02:25:00,
2013-01-21 21:31:00,10.5,6.1,29.88,NE,45,1.0,0.0,82,0.00,,CLR,-99.99,VWS V14.01,2013-01-22 02:31:00,
2013-01-21 21:36:00,11.1,6.7,29.88,NE,45,1.0,0.0,82,0.00,,CLR,-99.99,VWS V14.01,2013-01-22 02:36:00,
2013-01-21 21:42:00,11.8,7.6,29.87,NE,45,1.0,0.0,83,0.00,,CLR,-99.99,VWS V14.01,2013-01-22 02:42:00,
2013-01-21 21:47:00,11.3,6.9,29.87,NE,45,1.0,0.0,82,0.00,,CLR,-99.99,VWS V14.01,2013-01-22 02:47:00,
2013-01-21 21:53:00,9.6,5.2,29.86,NE,45,1.0,0.0,82,0.00,,CLR,-99.99,VWS V14.01,2013-01-22 02:53:00,
2013-01-21 21:59:00,9.3,4.9,29.86,NE,45,1.0,0.0,82,0.00,,CLR,-99.99,VWS V14.01,2013-01-22 02:59:00,
2013-01-21 22:05:00,8.7,4.3,29.86,NE,45,1.0,0.0,82,0.00,,CLR,-99.99,VWS V14.01,2013-01-22 03:05:00,
2013-01-21 22:10:00,8.2,3.6,29.86,NE,45,1.0,0.0,81,0.00,,CLR,-99.99,VWS V14.01,2013-01-22 03:10:00,
2013-01-21 22:15:00,7.8,3.2,29.86,NE,45,1.0,0.0,81,0.00,,CLR,-99.99,VWS V14.01,2013-01-22 03:15:00,
2013-01-21 22:20:00,7.8,3.2,29.84,NE,45,1.0,0.0,81,0.00,,CLR,-99.99,VWS V14.01,2013-01-22 03:20:00,
2013-01-21 22:25:00,7.5,2.9,29.85,NE,45,1.0,0.0,81,0.00,,CLR,-99.99,VWS V14.01,2013-01-22 03:25:00,
2013-01-21 22:30:00,7.5,2.9,29.84,NE,45,1.0,0.0,81,0.00,,CLR,-99.99,VWS V14.01,2013-01-22 03:30:00,
2013-01-21 22:35:00,7.5,2.6,29.84,NE,45,1.0,0.0,80,0.00,,CLR,-99.99,VWS V14.01,2013-01-22 03:35:00,
2013-01-21 22:40:00,7.5,2.6,29.84,NE,45,1.0,0.0,80,0.00,,CLR,-99.99,VWS V14.01,2013-01-22 03:40:00,
2013-01-21 22:45:00,6.9,2.0,29.83,NE,45,1.0,0.0,80,0.00,,CLR,-99.99,VWS V14.01,2013-01-22 03:45:00,
2013-01-21 22:50:00,6.9,2.0,29.83,NE,45,1.0,0.0,80,0.00,,CLR,-99.99,VWS V14.01,2013-01-22 03:50:00,
2013-01-21 22:55:00,6.8,1.7,29.83,NE,45,1.0,0.0,79,0.00,,CLR,-99.99,VWS V14.01,2013-01-22 03:55:00,
2013-01-21 23:01:00,6.8,1.7,29.83,NE,45,1.0,0.0,79,0.00,,CLR,-99.99,VWS V14.01,2013-01-22 04:01:00,
2013-01-21 23:07:00,6.9,1.5,29.83,NE,45,1.0,0.0,78,0.00,,CLR,-99.99,VWS V14.01,2013-01-22 04:07:00,
2013-01-21 23:12:00,6.6,1.2,29.83,NE,45,1.0,0.0,78,0.00,,CLR,-99.99,VWS V14.01,2013-01-22 04:12:00,
2013-01-21 23:17:00,6.4,1.0,29.83,NE,45,1.0,0.0,78,0.00,,CLR,-99.99,VWS V14.01,2013-01-22 04:17:00,
2013-01-21 23:22:00,6.6,1.2,29.82,NE,45,1.0,0.0,78,0.00,,CLR,-99.99,VWS V14.01,2013-01-22 04:22:00,
2013-01-21 23:27:00,6.4,1.0,29.82,NE,45,1.0,0.0,78,0.00,,CLR,-99.99,VWS V14.01,2013-01-22 04:27:00,
2013-01-21 23:33:00,6.4,1.0,29.81,NE,45,1.0,0.0,78,0.00,,CLR,-99.99,VWS V14.01,2013-01-22 04:33:00,
2013-01-21 23:38:00,6.4,1.0,29.81,NE,45,1.0,0.0,78,0.00,,CLR,-99.99,VWS V14.01,2013-01-22 04:38:00,
2013-01-21 23:43:00,5.7,0.1,29.81,NE,45,1.0,0.0,77,0.00,,CLR,-99.99,VWS V14.01,2013-01-22 04:43:00,
2013-01-21 23:49:00,5.0,-0.6,29.80,NE,45,1.0,0.0,77,0.00,,CLR,-99.99,VWS V14.01,2013-01-22 04:49:00,
2013-01-21 23:55:00,4.4,-0.9,29.80,NE,45,1.0,0.0,78,0.00,,CLR,-99.99,VWS V14.01,2013-01-22 04:55:00,